Weather reports worldwide

Advertisment
La Molina, Spain (8117): temperature & dewpoint: 06.12.2019 16:00:00 - 12.12.2019 16:00:00 (CET)La Molina, Spain (8117): wind speed & gusts: 06.12.2019 16:00:00 - 12.12.2019 16:00:00 (CET)La Molina, Spain (8117): wind direction: 06.12.2019 16:00:00 - 12.12.2019 16:00:00 (CET)La Molina, Spain (8117): visibility: 06.12.2019 16:00:00 - 12.12.2019 16:00:00 (CET)La Molina, Spain (8117): sunshine duration: 06.12.2019 16:00:00 - 12.12.2019 16:00:00 (CET)La Molina, Spain (8117): precipitation: 06.12.2019 16:00:00 - 12.12.2019 16:00:00 (CET)
Date & Time tt [°C] td [°C] ff [km/h] ff [kn] fx [km/h] fx [kn] dd vv [km] sd [min] rr [mm]
12.12.2019 16:00:00 -0,1 -2,0 3 2 15 8 NNW 20 0 0,0
12.12.2019 15:00:00 0,5 -2,0 6 3 17 9 NNE 20 0 0,0
12.12.2019 14:00:00 1,7 -2,2 4 2 13 7 ESE 20 39 0,0
12.12.2019 13:00:00 2,2 -1,7 5 3 10 6 NNW 20 9 -
12.12.2019 12:00:00 1,1 -2,7 4 2 11 6 N 20 42 0,0
12.12.2019 11:00:00 1,3 -2,7 4 2 11 6 N 20 33 0,0
12.12.2019 10:00:00 -0,8 -4,2 6 3 13 7 E 20 0 0,0
12.12.2019 09:00:00 -1,8 -3,6 3 2 13 7 SE 20 0 0,0
12.12.2019 08:00:00 -2,5 -3,6 4 2 7 4 E 20 0 0,0
12.12.2019 07:00:00 -2,5 -3,6 4 2 11 6 SW 20 0 -
12.12.2019 06:00:00 -2,3 -3,3 3 1 8 4 SSW 13 0 0,0
12.12.2019 05:00:00 -2,1 -3,3 5 3 13 7 ENE 7 0 0,0
12.12.2019 04:00:00 -1,7 -4,2 3 2 26 14 NE 6 0 0,0
12.12.2019 03:00:00 -0,6 -4,5 12 7 35 19 WSW 7 0 0,0
12.12.2019 02:00:00 -0,6 -4,5 16 8 35 19 WSW 8 0 0,0
12.12.2019 01:00:00 -0,5 -5,4 15 8 38 20 W 10 0 -
12.12.2019 00:00:00 -1,2 -4,8 11 6 29 16 W 3,4 0 0,0
11.12.2019 23:00:00 -0,3 -7,1 14 7 38 20 W 18 0 0,0
11.12.2019 22:00:00 0,0 -8,6 16 8 32 17 W 12 0 0,0
11.12.2019 21:00:00 -3,4 -6,4 6 3 11 6 SW 6 0 0,0
11.12.2019 20:00:00 -2,5 -7,1 6 4 13 7 WSW 3,7 0 0,0
11.12.2019 19:00:00 -1,9 -7,8 4 2 24 13 SSW 20 0 -
11.12.2019 18:00:00 -0,2 -5,7 10 5 29 16 WNW 20 0 0,0
11.12.2019 17:00:00 1,0 -3,0 9 5 26 14 W 20 0 0,0
11.12.2019 16:00:00 0,9 -1,4 6 4 19 10 WSW 11 0 0,0
11.12.2019 15:00:00 2,6 -4,8 9 5 23 12 WSW 20 0 0,0
11.12.2019 14:00:00 4,2 -9,9 3 2 10 5 ESE 20 0 0,0
11.12.2019 13:00:00 4,3 -9,9 4 2 8 5 SSE 20 0 -
11.12.2019 12:00:00 5,7 -9,0 5 3 7 4 NE 20 14 0,0
11.12.2019 11:00:00 6,2 -8,6 2 1 9 5 SSW 20 32 0,0
11.12.2019 10:00:00 3,5 -10,3 3 1 9 5 SSE 20 0 0,0
11.12.2019 09:00:00 2,5 -10,3 5 3 11 6 SE 20 0 0,0
11.12.2019 08:00:00 1,7 -11,7 5 3 10 5 ESE 20 0 0,0
11.12.2019 07:00:00 2,5 -9,9 3 2 9 5 E 20 0 -
11.12.2019 06:00:00 2,8 -9,4 4 2 11 6 SSE 20 0 0,0
11.12.2019 05:00:00 2,5 -11,2 8 4 12 7 ESE 20 0 0,0
11.12.2019 04:00:00 1,4 -12,2 6 3 13 7 SE 20 0 0,0
11.12.2019 03:00:00 2,2 -13,9 10 5 14 7 ESE 20 0 0,0
11.12.2019 02:00:00 1,5 -12,8 8 5 12 6 ESE 20 0 0,0
11.12.2019 01:00:00 1,9 -11,7 6 4 11 6 ESE 20 0 -
11.12.2019 00:00:00 1,8 -10,8 6 4 11 6 ESE 20 0 0,0
10.12.2019 23:00:00 2,0 -12,8 6 3 12 7 ESE 20 0 0,0
10.12.2019 22:00:00 1,5 -11,2 7 4 13 7 SE 20 0 0,0
10.12.2019 21:00:00 1,3 -9,9 8 4 10 5 SSE 20 0 0,0
10.12.2019 20:00:00 2,8 -10,3 3 1 12 7 S 20 0 0,0
10.12.2019 19:00:00 2,7 -9,9 5 3 15 8 SSE 20 0 -
10.12.2019 18:00:00 1,5 -9,4 8 4 12 7 SSE 20 0 0,0
10.12.2019 17:00:00 2,2 -9,9 5 3 14 8 SSE 20 0 0,0
10.12.2019 16:00:00 6,1 -9,9 10 5 19 10 SSW 20 56 0,0
10.12.2019 15:00:00 8,3 -11,7 13 7 30 16 NW 20 60 0,0
10.12.2019 14:00:00 7,9 -14,5 16 9 33 18 WNW 20 60 0,0
10.12.2019 13:00:00 6,3 -15,8 15 8 29 16 WNW 20 11 -
10.12.2019 12:00:00 4,3 -16,5 9 5 23 12 NNW 14 18 0,0
10.12.2019 11:00:00 4,2 -18,0 10 5 27 14 NNW 20 33 0,0
10.12.2019 10:00:00 1,3 -17,2 8 5 25 13 NE 20 0 0,0
10.12.2019 09:00:00 1,8 -18,8 11 6 47 26 NW 20 0 0,0
10.12.2019 08:00:00 0,2 -15,1 19 11 55 30 NW 20 0 0,0
10.12.2019 07:00:00 -0,4 -10,8 19 11 44 24 NNW 16 0 -
10.12.2019 06:00:00 -0,8 -8,2 10 5 37 20 N 19 0 0,0
10.12.2019 05:00:00 -1,1 -7,1 12 6 32 17 N 16 0 0,0
10.12.2019 04:00:00 -1,9 -5,4 8 4 30 16 WSW 11 0 0,0
10.12.2019 03:00:00 -1,9 -5,4 11 6 26 14 W 20 0 0,0
10.12.2019 02:00:00 -1,9 -4,2 10 6 38 20 W 20 0 0,0
10.12.2019 01:00:00 -0,5 -6,0 25 13 57 31 W 20 0 -
10.12.2019 00:00:00 -1,3 -4,2 17 9 53 29 WNW 12 0 0,0
09.12.2019 23:00:00 -1,3 -3,3 23 13 50 27 W 3,6 0 0,2
09.12.2019 22:00:00 -1,3 -3,9 24 13 72 39 W 2,0 0 0,0
09.12.2019 21:00:00 -1,8 -3,6 15 8 38 21 WNW 5 0 0,0
09.12.2019 20:00:00 -1,1 -2,2 22 12 44 24 W 1,6 0 0,0
09.12.2019 19:00:00 -0,7 -2,7 14 7 29 16 W 2,0 0 -
09.12.2019 18:00:00 -0,8 -2,7 10 5 27 14 W 11 0 0,0
09.12.2019 17:00:00 0,1 -2,7 10 5 33 18 WNW 8 0 0,0
09.12.2019 16:00:00 1,4 -3,6 13 7 44 24 WNW 18 24 0,0
09.12.2019 15:00:00 2,8 -4,2 13 7 40 22 NW 20 52 0,0
09.12.2019 14:00:00 2,5 -2,7 9 5 30 16 WSW 20 54 0,0
09.12.2019 13:00:00 2,6 -4,5 16 9 40 21 NNW 20 12 -
09.12.2019 12:00:00 3,2 -3,3 7 4 22 12 WNW 20 48 0,0
09.12.2019 11:00:00 1,3 -2,0 9 5 35 19 WNW 20 16 0,0
09.12.2019 10:00:00 2,2 -6,7 9 5 30 16 W 20 0 0,0
09.12.2019 09:00:00 0,8 -7,5 5 3 25 14 WNW 20 0 0,0
09.12.2019 08:00:00 0,7 -8,6 3 2 23 12 W 20 0 0,0
09.12.2019 07:00:00 0,5 -6,0 6 3 46 25 S 20 0 -
09.12.2019 06:00:00 5,2 -15,1 18 10 42 23 SW 20 0 0,0
09.12.2019 05:00:00 5,6 -16,5 21 12 50 27 WSW 20 0 0,0
09.12.2019 04:00:00 5,0 -18,0 18 10 33 18 WSW 20 0 0,0
09.12.2019 03:00:00 1,1 -7,5 6 3 11 6 SSE 20 0 0,0
09.12.2019 02:00:00 1,5 -6,0 8 4 13 7 SE 20 0 0,0
09.12.2019 01:00:00 2,3 -4,5 9 5 17 9 ESE 20 0 -
09.12.2019 00:00:00 4,4 -3,6 9 5 21 11 SW 20 0 0,0
08.12.2019 23:00:00 4,5 0,0 7 4 16 9 SW 16 0 0,0
08.12.2019 22:00:00 4,1 0,9 8 4 14 8 SW 20 0 0,0
08.12.2019 21:00:00 3,4 0,9 4 2 14 8 S 20 0 0,0
08.12.2019 20:00:00 3,5 -2,0 7 4 13 7 SW 20 0 0,0
08.12.2019 19:00:00 3,4 -2,5 8 5 16 8 S 20 0 -
08.12.2019 18:00:00 2,8 -2,7 4 2 9 5 SE 20 0 0,0
08.12.2019 17:00:00 2,8 -2,0 6 4 11 6 ESE 20 0 0,0
08.12.2019 16:00:00 4,6 -0,7 6 3 12 6 ESE 20 56 0,0
08.12.2019 15:00:00 5,6 -1,7 7 4 11 6 SE 20 60 0,0
08.12.2019 14:00:00 4,9 -1,2 7 4 10 6 SE 20 60 0,0
08.12.2019 13:00:00 4,2 -2,2 6 3 9 5 SE 20 37 -
08.12.2019 12:00:00 3,5 -3,0 5 3 9 5 SE 20 60 0,0
08.12.2019 11:00:00 4,6 -3,3 6 3 15 8 SE 20 37 0,0
08.12.2019 10:00:00 1,8 -3,6 6 4 13 7 SE 20 0 0,0
08.12.2019 09:00:00 1,3 -3,6 5 3 12 6 SE 20 0 0,0
08.12.2019 08:00:00 1,3 -2,7 8 4 12 7 ESE 20 0 0,0
08.12.2019 07:00:00 1,4 -3,0 8 4 14 8 SE 20 0 -
08.12.2019 06:00:00 0,7 -2,7 8 4 16 9 ESE 20 0 0,0
08.12.2019 05:00:00 0,9 -2,5 4 2 11 6 E 20 0 0,0
08.12.2019 04:00:00 0,8 -2,5 8 4 12 6 ESE 20 0 0,0
08.12.2019 03:00:00 0,4 -2,5 6 3 10 5 SE 20 0 0,0
08.12.2019 02:00:00 1,3 -2,7 8 4 12 7 ESE 20 0 0,0
08.12.2019 01:00:00 1,3 -2,2 5 3 13 7 SE 20 0 -
08.12.2019 00:00:00 1,2 -2,0 7 4 11 6 ESE 20 0 0,0
07.12.2019 23:00:00 1,9 -2,0 4 2 11 6 ESE 20 0 0,0
07.12.2019 22:00:00 1,8 -2,0 9 5 12 7 SE 20 0 0,0
07.12.2019 21:00:00 1,7 -2,0 9 5 13 7 SE 20 0 0,0
07.12.2019 20:00:00 1,9 -1,4 9 5 12 7 ESE 20 0 0,0
07.12.2019 19:00:00 1,6 -1,2 9 5 13 7 SE 20 0 -
07.12.2019 18:00:00 2,0 -1,0 9 5 12 7 ESE 20 0 0,0
07.12.2019 17:00:00 2,6 -0,3 7 4 12 7 ESE 20 0 0,0
07.12.2019 16:00:00 4,1 0,0 6 4 12 7 SE 20 56 0,0
07.12.2019 15:00:00 4,8 -0,5 6 4 12 7 SE 20 60 0,0
07.12.2019 14:00:00 4,2 -0,5 7 4 11 6 SSE 20 60 0,0
07.12.2019 13:00:00 3,7 -1,2 6 3 9 5 SSE 20 38 -
07.12.2019 12:00:00 3,1 -1,7 6 3 11 6 SSE 20 60 0,0
07.12.2019 11:00:00 2,7 -2,2 7 4 11 6 SE 20 38 0,0
07.12.2019 10:00:00 0,7 -2,7 5 3 11 6 SE 20 0 0,0
07.12.2019 09:00:00 0,6 -3,6 8 4 12 7 ESE 20 0 0,0
07.12.2019 08:00:00 0,3 -3,6 8 4 12 6 ESE 20 0 0,0
07.12.2019 07:00:00 0,0 -3,0 7 4 11 6 ESE 20 0 -
07.12.2019 06:00:00 0,0 -2,5 7 4 11 6 ESE 20 0 0,0
07.12.2019 05:00:00 -0,4 -2,2 5 3 11 6 E 20 0 0,0
07.12.2019 04:00:00 -0,1 -1,7 5 3 11 6 SE 20 0 0,0
07.12.2019 03:00:00 -0,4 -1,4 6 4 10 5 SE 20 0 0,0
07.12.2019 02:00:00 -0,1 -1,2 5 3 11 6 ESE 20 0 0,0
07.12.2019 01:00:00 0,0 -0,5 6 3 10 5 SE 20 0 -
07.12.2019 00:00:00 0,0 -1,0 8 4 12 6 ESE 20 0 0,0
06.12.2019 23:00:00 -0,2 -1,2 7 4 10 6 ESE 20 0 0,0
06.12.2019 22:00:00 0,0 -1,0 8 4 11 6 ESE 20 0 0,0
06.12.2019 21:00:00 0,0 -0,7 8 5 12 6 ESE 20 0 0,0
06.12.2019 20:00:00 0,3 -0,3 8 4 12 6 ESE 20 0 0,0
06.12.2019 19:00:00 0,6 0,0 8 4 11 6 ESE 20 0 -
06.12.2019 18:00:00 0,7 -0,3 9 5 11 6 ESE 20 0 0,0
06.12.2019 17:00:00 1,2 0,0 8 4 11 6 ESE 20 0 0,0
06.12.2019 16:00:00 1,4 0,2 7 4 10 6 ESE 20 27 0,0

tt = temperature
td = dewpoint
ff = wind speed
fx = gusts
dd = wind direction
vv = visibility
sd = sunshine duration
rr = precipitation

Next stations